sensor_id;sensor_type;location;lat;lon;timestamp;temperature;humidity
8008;DHT22;4049;49.468;11.200;2023-02-12T00:01:21;3.40;99.90
8008;DHT22;4049;49.468;11.200;2023-02-12T00:03:49;3.40;99.90
8008;DHT22;4049;49.468;11.200;2023-02-12T00:06:16;3.30;99.90
8008;DHT22;4049;49.468;11.200;2023-02-12T00:08:43;3.30;99.90
8008;DHT22;4049;49.468;11.200;2023-02-12T00:11:11;3.30;99.90
8008;DHT22;4049;49.468;11.200;2023-02-12T00:13:38;3.30;99.90
8008;DHT22;4049;49.468;11.200;2023-02-12T00:16:06;3.30;99.90
8008;DHT22;4049;49.468;11.200;2023-02-12T00:18:34;3.30;99.90
8008;DHT22;4049;49.468;11.200;2023-02-12T00:21:02;3.30;99.90
8008;DHT22;4049;49.468;11.200;2023-02-12T00:23:29;3.30;99.90
8008;DHT22;4049;49.468;11.200;2023-02-12T00:25:56;3.30;99.90
8008;DHT22;4049;49.468;11.200;2023-02-12T00:28:24;3.30;99.90
8008;DHT22;4049;49.468;11.200;2023-02-12T00:30:51;3.20;99.90
8008;DHT22;4049;49.468;11.200;2023-02-12T00:33:17;3.20;99.90
8008;DHT22;4049;49.468;11.200;2023-02-12T00:35:44;3.20;99.90
8008;DHT22;4049;49.468;11.200;2023-02-12T00:38:12;3.20;99.90
8008;DHT22;4049;49.468;11.200;2023-02-12T00:40:40;3.20;99.90
8008;DHT22;4049;49.468;11.200;2023-02-12T00:43:07;3.20;99.90
8008;DHT22;4049;49.468;11.200;2023-02-12T00:45:34;3.20;99.90
8008;DHT22;4049;49.468;11.200;2023-02-12T00:48:02;3.20;99.90
8008;DHT22;4049;49.468;11.200;2023-02-12T00:50:29;3.20;99.90
8008;DHT22;4049;49.468;11.200;2023-02-12T00:52:56;3.20;99.90
8008;DHT22;4049;49.468;11.200;2023-02-12T00:55:24;3.20;99.90
8008;DHT22;4049;49.468;11.200;2023-02-12T00:57:51;3.20;99.90
8008;DHT22;4049;49.468;11.200;2023-02-12T01:00:18;3.20;99.90
8008;DHT22;4049;49.468;11.200;2023-02-12T01:02:45;3.20;99.90
8008;DHT22;4049;49.468;11.200;2023-02-12T01:05:12;3.20;99.90
8008;DHT22;4049;49.468;11.200;2023-02-12T01:07:39;3.10;99.90
8008;DHT22;4049;49.468;11.200;2023-02-12T01:10:07;3.20;99.90
8008;DHT22;4049;49.468;11.200;2023-02-12T01:12:35;3.10;99.90
8008;DHT22;4049;49.468;11.200;2023-02-12T01:15:02;3.10;99.90
8008;DHT22;4049;49.468;11.200;2023-02-12T01:17:29;3.10;99.90
8008;DHT22;4049;49.468;11.200;2023-02-12T01:19:57;3.10;99.90
8008;DHT22;4049;49.468;11.200;2023-02-12T01:22:24;3.20;99.90
8008;DHT22;4049;49.468;11.200;2023-02-12T01:24:51;3.10;99.90
8008;DHT22;4049;49.468;11.200;2023-02-12T01:27:18;3.10;99.90
8008;DHT22;4049;49.468;11.200;2023-02-12T01:29:46;3.10;99.90
8008;DHT22;4049;49.468;11.200;2023-02-12T01:32:13;3.10;99.90
8008;DHT22;4049;49.468;11.200;2023-02-12T01:34:40;3.10;99.90
8008;DHT22;4049;49.468;11.200;2023-02-12T01:37:06;3.10;99.90
8008;DHT22;4049;49.468;11.200;2023-02-12T01:39:33;3.10;99.90
8008;DHT22;4049;49.468;11.200;2023-02-12T01:42:02;3.10;99.90
8008;DHT22;4049;49.468;11.200;2023-02-12T01:44:30;3.10;99.90
8008;DHT22;4049;49.468;11.200;2023-02-12T01:47:00;3.10;99.90
8008;DHT22;4049;49.468;11.200;2023-02-12T01:49:30;3.10;99.90
8008;DHT22;4049;49.468;11.200;2023-02-12T01:52:00;3.10;99.90
8008;DHT22;4049;49.468;11.200;2023-02-12T01:54:29;3.10;99.90
8008;DHT22;4049;49.468;11.200;2023-02-12T01:56:58;3.10;99.90
8008;DHT22;4049;49.468;11.200;2023-02-12T01:59:25;3.10;99.90
8008;DHT22;4049;49.468;11.200;2023-02-12T02:01:53;3.10;99.90
8008;DHT22;4049;49.468;11.200;2023-02-12T02:04:24;3.10;99.90
8008;DHT22;4049;49.468;11.200;2023-02-12T02:06:56;3.10;99.90
8008;DHT22;4049;49.468;11.200;2023-02-12T02:09:24;3.10;99.90
8008;DHT22;4049;49.468;11.200;2023-02-12T02:11:51;3.10;99.90
8008;DHT22;4049;49.468;11.200;2023-02-12T02:14:36;3.10;99.90
8008;DHT22;4049;49.468;11.200;2023-02-12T02:17:15;3.10;99.90
8008;DHT22;4049;49.468;11.200;2023-02-12T02:20:24;3.00;99.90
8008;DHT22;4049;49.468;11.200;2023-02-12T02:23:14;3.10;99.90
8008;DHT22;4049;49.468;11.200;2023-02-12T02:28:57;3.10;99.90
8008;DHT22;4049;49.468;11.200;2023-02-12T02:31:29;3.00;99.90
8008;DHT22;4049;49.468;11.200;2023-02-12T02:34:02;3.00;99.90
8008;DHT22;4049;49.468;11.200;2023-02-12T02:36:35;3.00;99.90
8008;DHT22;4049;49.468;11.200;2023-02-12T02:39:07;3.00;99.90
8008;DHT22;4049;49.468;11.200;2023-02-12T02:41:44;3.00;99.90
8008;DHT22;4049;49.468;11.200;2023-02-12T02:44:16;3.00;99.90
8008;DHT22;4049;49.468;11.200;2023-02-12T02:46:47;3.00;99.90
8008;DHT22;4049;49.468;11.200;2023-02-12T02:49:18;3.00;99.90
8008;DHT22;4049;49.468;11.200;2023-02-12T02:51:51;3.00;99.90
8008;DHT22;4049;49.468;11.200;2023-02-12T02:54:22;3.00;99.90
8008;DHT22;4049;49.468;11.200;2023-02-12T02:56:55;3.00;99.90
8008;DHT22;4049;49.468;11.200;2023-02-12T02:59:27;3.00;99.90
8008;DHT22;4049;49.468;11.200;2023-02-12T03:02:01;3.00;99.90
8008;DHT22;4049;49.468;11.200;2023-02-12T03:04:35;3.00;99.90
8008;DHT22;4049;49.468;11.200;2023-02-12T03:07:08;3.00;99.90
8008;DHT22;4049;49.468;11.200;2023-02-12T03:09:37;3.00;99.90
8008;DHT22;4049;49.468;11.200;2023-02-12T03:12:08;3.00;99.90
8008;DHT22;4049;49.468;11.200;2023-02-12T03:14:39;3.00;99.90
8008;DHT22;4049;49.468;11.200;2023-02-12T03:17:13;3.00;99.90
8008;DHT22;4049;49.468;11.200;2023-02-12T03:19:42;3.00;99.90
8008;DHT22;4049;49.468;11.200;2023-02-12T03:22:12;3.00;99.90
8008;DHT22;4049;49.468;11.200;2023-02-12T03:24:43;3.00;99.90
8008;DHT22;4049;49.468;11.200;2023-02-12T03:27:16;3.00;99.90
8008;DHT22;4049;49.468;11.200;2023-02-12T03:29:45;3.00;99.90
8008;DHT22;4049;49.468;11.200;2023-02-12T03:32:27;3.00;99.90
8008;DHT22;4049;49.468;11.200;2023-02-12T03:35:08;3.00;99.90
8008;DHT22;4049;49.468;11.200;2023-02-12T03:37:38;3.00;99.90
8008;DHT22;4049;49.468;11.200;2023-02-12T03:40:13;2.90;99.90
8008;DHT22;4049;49.468;11.200;2023-02-12T03:42:46;2.90;99.90
8008;DHT22;4049;49.468;11.200;2023-02-12T03:45:23;2.90;99.90
8008;DHT22;4049;49.468;11.200;2023-02-12T03:48:00;3.00;99.90
8008;DHT22;4049;49.468;11.200;2023-02-12T03:50:35;2.90;99.90
8008;DHT22;4049;49.468;11.200;2023-02-12T03:53:03;2.90;99.90
8008;DHT22;4049;49.468;11.200;2023-02-12T03:55:31;2.90;99.90
8008;DHT22;4049;49.468;11.200;2023-02-12T03:58:01;2.90;99.90
8008;DHT22;4049;49.468;11.200;2023-02-12T04:00:29;2.90;99.90
8008;DHT22;4049;49.468;11.200;2023-02-12T04:02:57;2.90;99.90
8008;DHT22;4049;49.468;11.200;2023-02-12T04:05:26;2.90;99.90
8008;DHT22;4049;49.468;11.200;2023-02-12T04:07:54;2.90;99.90
8008;DHT22;4049;49.468;11.200;2023-02-12T04:10:27;2.90;99.90
8008;DHT22;4049;49.468;11.200;2023-02-12T04:13:00;2.90;99.90
8008;DHT22;4049;49.468;11.200;2023-02-12T04:15:44;2.80;99.90
8008;DHT22;4049;49.468;11.200;2023-02-12T04:18:18;2.90;99.90
8008;DHT22;4049;49.468;11.200;2023-02-12T04:20:53;2.80;99.90
8008;DHT22;4049;49.468;11.200;2023-02-12T04:23:34;2.80;99.90
8008;DHT22;4049;49.468;11.200;2023-02-12T04:26:10;2.90;99.90
8008;DHT22;4049;49.468;11.200;2023-02-12T04:28:47;2.80;99.90
8008;DHT22;4049;49.468;11.200;2023-02-12T04:31:22;2.80;99.90
8008;DHT22;4049;49.468;11.200;2023-02-12T04:33:59;2.80;99.90
8008;DHT22;4049;49.468;11.200;2023-02-12T04:36:32;2.80;99.90
8008;DHT22;4049;49.468;11.200;2023-02-12T04:39:02;2.80;99.90
8008;DHT22;4049;49.468;11.200;2023-02-12T04:41:31;2.80;99.90
8008;DHT22;4049;49.468;11.200;2023-02-12T04:43:58;2.80;99.90
8008;DHT22;4049;49.468;11.200;2023-02-12T04:46:38;2.80;99.90
8008;DHT22;4049;49.468;11.200;2023-02-12T04:49:12;2.80;99.90
8008;DHT22;4049;49.468;11.200;2023-02-12T04:51:39;2.80;99.90
8008;DHT22;4049;49.468;11.200;2023-02-12T04:54:06;2.80;99.90
8008;DHT22;4049;49.468;11.200;2023-02-12T04:56:33;2.80;99.90
8008;DHT22;4049;49.468;11.200;2023-02-12T04:58:59;2.80;99.90
8008;DHT22;4049;49.468;11.200;2023-02-12T05:01:26;2.80;99.90
8008;DHT22;4049;49.468;11.200;2023-02-12T05:03:53;2.80;99.90
8008;DHT22;4049;49.468;11.200;2023-02-12T05:06:21;2.80;99.90
8008;DHT22;4049;49.468;11.200;2023-02-12T05:08:48;2.80;99.90
8008;DHT22;4049;49.468;11.200;2023-02-12T05:11:15;2.70;99.90
8008;DHT22;4049;49.468;11.200;2023-02-12T05:13:41;2.80;99.90
8008;DHT22;4049;49.468;11.200;2023-02-12T05:16:08;2.80;99.90
8008;DHT22;4049;49.468;11.200;2023-02-12T05:18:35;2.80;99.90
8008;DHT22;4049;49.468;11.200;2023-02-12T05:21:03;2.80;99.90
8008;DHT22;4049;49.468;11.200;2023-02-12T05:23:33;2.80;99.90
8008;DHT22;4049;49.468;11.200;2023-02-12T05:26:04;2.70;99.90
8008;DHT22;4049;49.468;11.200;2023-02-12T05:28:31;2.80;99.90
8008;DHT22;4049;49.468;11.200;2023-02-12T05:30:59;2.80;99.90
8008;DHT22;4049;49.468;11.200;2023-02-12T05:33:26;2.70;99.90
8008;DHT22;4049;49.468;11.200;2023-02-12T05:35:53;2.70;99.90
8008;DHT22;4049;49.468;11.200;2023-02-12T05:38:21;2.70;99.90
8008;DHT22;4049;49.468;11.200;2023-02-12T05:40:49;2.80;99.90
8008;DHT22;4049;49.468;11.200;2023-02-12T05:43:16;2.70;99.90
8008;DHT22;4049;49.468;11.200;2023-02-12T05:45:43;2.70;99.90
8008;DHT22;4049;49.468;11.200;2023-02-12T05:48:10;2.70;99.90
8008;DHT22;4049;49.468;11.200;2023-02-12T05:50:36;2.70;99.90
8008;DHT22;4049;49.468;11.200;2023-02-12T05:53:03;2.70;99.90
8008;DHT22;4049;49.468;11.200;2023-02-12T05:55:30;2.70;99.90
8008;DHT22;4049;49.468;11.200;2023-02-12T05:57:58;2.70;99.90
8008;DHT22;4049;49.468;11.200;2023-02-12T06:00:25;2.70;99.90
8008;DHT22;4049;49.468;11.200;2023-02-12T06:02:52;2.80;99.90
8008;DHT22;4049;49.468;11.200;2023-02-12T06:05:19;2.70;99.90
8008;DHT22;4049;49.468;11.200;2023-02-12T06:07:45;2.70;99.90
8008;DHT22;4049;49.468;11.200;2023-02-12T06:10:12;2.70;99.90
8008;DHT22;4049;49.468;11.200;2023-02-12T06:12:39;2.70;99.90
8008;DHT22;4049;49.468;11.200;2023-02-12T06:15:08;2.70;99.90
8008;DHT22;4049;49.468;11.200;2023-02-12T06:17:35;2.70;99.90
8008;DHT22;4049;49.468;11.200;2023-02-12T06:20:02;2.70;99.90
8008;DHT22;4049;49.468;11.200;2023-02-12T06:22:29;2.70;99.90
8008;DHT22;4049;49.468;11.200;2023-02-12T06:24:56;2.70;99.90
8008;DHT22;4049;49.468;11.200;2023-02-12T06:27:23;2.70;99.90
8008;DHT22;4049;49.468;11.200;2023-02-12T06:29:49;2.70;99.90
8008;DHT22;4049;49.468;11.200;2023-02-12T06:32:18;2.70;99.90
8008;DHT22;4049;49.468;11.200;2023-02-12T06:34:45;2.70;99.90
8008;DHT22;4049;49.468;11.200;2023-02-12T06:37:11;2.70;99.90
8008;DHT22;4049;49.468;11.200;2023-02-12T06:39:38;2.70;99.90
8008;DHT22;4049;49.468;11.200;2023-02-12T06:42:05;2.70;99.90
8008;DHT22;4049;49.468;11.200;2023-02-12T06:44:32;2.70;99.90
8008;DHT22;4049;49.468;11.200;2023-02-12T06:46:59;2.70;99.90
8008;DHT22;4049;49.468;11.200;2023-02-12T06:49:27;2.70;99.90
8008;DHT22;4049;49.468;11.200;2023-02-12T06:51:54;2.70;99.90
8008;DHT22;4049;49.468;11.200;2023-02-12T06:54:20;2.70;99.90
8008;DHT22;4049;49.468;11.200;2023-02-12T06:56:47;2.70;99.90
8008;DHT22;4049;49.468;11.200;2023-02-12T06:59:15;2.70;99.90
8008;DHT22;4049;49.468;11.200;2023-02-12T07:01:43;2.80;99.90
8008;DHT22;4049;49.468;11.200;2023-02-12T07:04:10;2.70;99.90
8008;DHT22;4049;49.468;11.200;2023-02-12T07:06:38;2.80;99.90
8008;DHT22;4049;49.468;11.200;2023-02-12T07:09:05;2.80;99.90
8008;DHT22;4049;49.468;11.200;2023-02-12T07:11:34;2.80;99.90
8008;DHT22;4049;49.468;11.200;2023-02-12T07:14:01;2.80;99.90
8008;DHT22;4049;49.468;11.200;2023-02-12T07:16:28;2.80;99.90
8008;DHT22;4049;49.468;11.200;2023-02-12T07:18:54;2.80;99.90
8008;DHT22;4049;49.468;11.200;2023-02-12T07:21:21;2.90;99.90
8008;DHT22;4049;49.468;11.200;2023-02-12T07:23:51;2.80;99.90
8008;DHT22;4049;49.468;11.200;2023-02-12T07:26:19;2.90;99.90
8008;DHT22;4049;49.468;11.200;2023-02-12T07:28:46;2.90;99.90
8008;DHT22;4049;49.468;11.200;2023-02-12T07:31:14;2.90;99.90
8008;DHT22;4049;49.468;11.200;2023-02-12T07:33:43;2.90;99.90
8008;DHT22;4049;49.468;11.200;2023-02-12T07:36:11;3.00;99.90
8008;DHT22;4049;49.468;11.200;2023-02-12T07:38:38;3.00;99.90
8008;DHT22;4049;49.468;11.200;2023-02-12T07:41:08;3.00;99.90
8008;DHT22;4049;49.468;11.200;2023-02-12T07:43:37;3.10;99.90
8008;DHT22;4049;49.468;11.200;2023-02-12T07:46:09;3.10;99.90
8008;DHT22;4049;49.468;11.200;2023-02-12T07:48:36;3.10;99.90
8008;DHT22;4049;49.468;11.200;2023-02-12T07:51:05;3.10;99.90
8008;DHT22;4049;49.468;11.200;2023-02-12T07:53:32;3.10;99.90
8008;DHT22;4049;49.468;11.200;2023-02-12T07:56:08;3.20;99.90
8008;DHT22;4049;49.468;11.200;2023-02-12T07:58:36;3.20;99.90
8008;DHT22;4049;49.468;11.200;2023-02-12T08:01:15;3.20;99.90
8008;DHT22;4049;49.468;11.200;2023-02-12T08:03:42;3.20;99.90
8008;DHT22;4049;49.468;11.200;2023-02-12T08:06:11;3.30;99.90
8008;DHT22;4049;49.468;11.200;2023-02-12T08:08:38;3.30;99.90
8008;DHT22;4049;49.468;11.200;2023-02-12T08:11:08;3.30;99.90
8008;DHT22;4049;49.468;11.200;2023-02-12T08:13:35;3.30;99.90
8008;DHT22;4049;49.468;11.200;2023-02-12T08:16:03;3.40;99.90
8008;DHT22;4049;49.468;11.200;2023-02-12T08:18:32;3.40;99.90
8008;DHT22;4049;49.468;11.200;2023-02-12T08:21:03;3.50;99.90
8008;DHT22;4049;49.468;11.200;2023-02-12T08:23:30;3.50;99.90
8008;DHT22;4049;49.468;11.200;2023-02-12T08:26:07;3.60;99.90
8008;DHT22;4049;49.468;11.200;2023-02-12T08:28:35;3.60;99.90
8008;DHT22;4049;49.468;11.200;2023-02-12T08:31:03;3.60;99.90
8008;DHT22;4049;49.468;11.200;2023-02-12T08:33:31;3.70;99.90
8008;DHT22;4049;49.468;11.200;2023-02-12T08:36:02;3.70;99.90
8008;DHT22;4049;49.468;11.200;2023-02-12T08:38:30;3.80;99.90
8008;DHT22;4049;49.468;11.200;2023-02-12T08:41:00;3.80;99.90
8008;DHT22;4049;49.468;11.200;2023-02-12T08:43:28;3.90;99.90
8008;DHT22;4049;49.468;11.200;2023-02-12T08:46:00;3.90;99.90
8008;DHT22;4049;49.468;11.200;2023-02-12T08:48:27;3.90;99.90
8008;DHT22;4049;49.468;11.200;2023-02-12T08:50:54;3.90;99.90
8008;DHT22;4049;49.468;11.200;2023-02-12T08:53:21;4.00;99.90
8008;DHT22;4049;49.468;11.200;2023-02-12T08:55:48;4.10;99.90
8008;DHT22;4049;49.468;11.200;2023-02-12T08:58:15;4.10;99.90
8008;DHT22;4049;49.468;11.200;2023-02-12T09:00:43;4.20;99.90
8008;DHT22;4049;49.468;11.200;2023-02-12T09:03:10;4.30;99.90
8008;DHT22;4049;49.468;11.200;2023-02-12T09:05:38;4.30;99.90
8008;DHT22;4049;49.468;11.200;2023-02-12T09:08:06;4.40;99.90
8008;DHT22;4049;49.468;11.200;2023-02-12T09:10:33;4.50;99.90
8008;DHT22;4049;49.468;11.200;2023-02-12T09:13:00;4.50;99.90
8008;DHT22;4049;49.468;11.200;2023-02-12T09:15:26;4.50;99.90
8008;DHT22;4049;49.468;11.200;2023-02-12T09:17:54;4.60;99.90
8008;DHT22;4049;49.468;11.200;2023-02-12T09:20:22;4.70;99.90
8008;DHT22;4049;49.468;11.200;2023-02-12T09:22:49;4.70;99.90
8008;DHT22;4049;49.468;11.200;2023-02-12T09:25:16;4.80;99.90
8008;DHT22;4049;49.468;11.200;2023-02-12T09:27:42;4.80;99.90
8008;DHT22;4049;49.468;11.200;2023-02-12T09:30:10;4.80;99.90
8008;DHT22;4049;49.468;11.200;2023-02-12T09:32:37;4.90;99.90
8008;DHT22;4049;49.468;11.200;2023-02-12T09:35:05;4.90;99.90
8008;DHT22;4049;49.468;11.200;2023-02-12T09:37:35;4.90;99.90
8008;DHT22;4049;49.468;11.200;2023-02-12T09:40:03;4.90;99.90
8008;DHT22;4049;49.468;11.200;2023-02-12T09:42:40;4.90;99.90
8008;DHT22;4049;49.468;11.200;2023-02-12T09:45:17;5.00;99.90
8008;DHT22;4049;49.468;11.200;2023-02-12T09:47:51;5.10;99.90
8008;DHT22;4049;49.468;11.200;2023-02-12T09:50:32;5.10;99.90
8008;DHT22;4049;49.468;11.200;2023-02-12T09:53:01;5.20;99.90
8008;DHT22;4049;49.468;11.200;2023-02-12T09:55:31;5.20;99.90
8008;DHT22;4049;49.468;11.200;2023-02-12T09:58:02;5.30;99.90
8008;DHT22;4049;49.468;11.200;2023-02-12T10:00:30;5.40;99.90
8008;DHT22;4049;49.468;11.200;2023-02-12T10:03:01;5.40;99.90
8008;DHT22;4049;49.468;11.200;2023-02-12T10:05:32;5.40;99.90
8008;DHT22;4049;49.468;11.200;2023-02-12T10:08:23;5.50;99.90
8008;DHT22;4049;49.468;11.200;2023-02-12T10:10:54;5.50;99.90
8008;DHT22;4049;49.468;11.200;2023-02-12T10:13:37;5.60;99.90
8008;DHT22;4049;49.468;11.200;2023-02-12T10:16:13;5.60;99.90
8008;DHT22;4049;49.468;11.200;2023-02-12T10:19:03;5.70;99.90
8008;DHT22;4049;49.468;11.200;2023-02-12T10:21:46;5.60;99.90
8008;DHT22;4049;49.468;11.200;2023-02-12T10:24:36;5.60;99.90
8008;DHT22;4049;49.468;11.200;2023-02-12T10:27:12;5.60;99.90
8008;DHT22;4049;49.468;11.200;2023-02-12T10:29:42;5.60;99.90
8008;DHT22;4049;49.468;11.200;2023-02-12T10:32:13;5.60;99.90
8008;DHT22;4049;49.468;11.200;2023-02-12T10:34:43;5.70;99.90
8008;DHT22;4049;49.468;11.200;2023-02-12T10:37:19;5.70;99.90
8008;DHT22;4049;49.468;11.200;2023-02-12T10:39:50;5.70;99.90
8008;DHT22;4049;49.468;11.200;2023-02-12T10:42:25;5.70;99.90
8008;DHT22;4049;49.468;11.200;2023-02-12T10:44:57;5.70;99.90
8008;DHT22;4049;49.468;11.200;2023-02-12T10:47:24;5.70;99.90
8008;DHT22;4049;49.468;11.200;2023-02-12T10:49:55;5.80;99.90
8008;DHT22;4049;49.468;11.200;2023-02-12T10:52:32;5.80;99.90
8008;DHT22;4049;49.468;11.200;2023-02-12T10:55:00;5.90;99.90
8008;DHT22;4049;49.468;11.200;2023-02-12T10:57:29;5.90;99.90
8008;DHT22;4049;49.468;11.200;2023-02-12T11:00:13;5.80;99.90
8008;DHT22;4049;49.468;11.200;2023-02-12T11:03:03;5.90;99.90
8008;DHT22;4049;49.468;11.200;2023-02-12T11:05:32;5.90;99.90
8008;DHT22;4049;49.468;11.200;2023-02-12T11:08:00;5.90;99.90
8008;DHT22;4049;49.468;11.200;2023-02-12T11:10:29;5.90;99.90
8008;DHT22;4049;49.468;11.200;2023-02-12T11:12:57;5.90;99.90
8008;DHT22;4049;49.468;11.200;2023-02-12T11:15:26;6.00;99.90
8008;DHT22;4049;49.468;11.200;2023-02-12T11:17:57;6.00;99.90
8008;DHT22;4049;49.468;11.200;2023-02-12T11:20:26;6.10;99.90
8008;DHT22;4049;49.468;11.200;2023-02-12T11:22:58;6.10;99.90
8008;DHT22;4049;49.468;11.200;2023-02-12T11:25:28;6.10;99.90
8008;DHT22;4049;49.468;11.200;2023-02-12T11:28:05;6.10;99.90
8008;DHT22;4049;49.468;11.200;2023-02-12T11:30:48;6.10;99.90
8008;DHT22;4049;49.468;11.200;2023-02-12T11:33:22;6.20;99.90
8008;DHT22;4049;49.468;11.200;2023-02-12T11:35:51;6.20;99.90
8008;DHT22;4049;49.468;11.200;2023-02-12T11:38:23;6.30;99.90
8008;DHT22;4049;49.468;11.200;2023-02-12T11:40:54;6.20;99.90
8008;DHT22;4049;49.468;11.200;2023-02-12T11:43:21;6.30;99.90
8008;DHT22;4049;49.468;11.200;2023-02-12T11:45:50;6.30;99.90
8008;DHT22;4049;49.468;11.200;2023-02-12T11:48:24;6.30;99.90
8008;DHT22;4049;49.468;11.200;2023-02-12T11:50:54;6.30;99.90
8008;DHT22;4049;49.468;11.200;2023-02-12T11:53:24;6.30;99.90
8008;DHT22;4049;49.468;11.200;2023-02-12T11:55:56;6.20;99.90
8008;DHT22;4049;49.468;11.200;2023-02-12T11:58:25;6.30;99.90
8008;DHT22;4049;49.468;11.200;2023-02-12T12:00:58;6.30;99.90
8008;DHT22;4049;49.468;11.200;2023-02-12T12:03:29;6.30;99.90
8008;DHT22;4049;49.468;11.200;2023-02-12T12:06:02;6.30;99.90
8008;DHT22;4049;49.468;11.200;2023-02-12T12:08:34;6.40;99.90
8008;DHT22;4049;49.468;11.200;2023-02-12T12:11:10;6.50;99.90
8008;DHT22;4049;49.468;11.200;2023-02-12T12:13:43;6.60;99.90
8008;DHT22;4049;49.468;11.200;2023-02-12T12:16:15;6.60;99.90
8008;DHT22;4049;49.468;11.200;2023-02-12T12:19:04;6.70;99.90
8008;DHT22;4049;49.468;11.200;2023-02-12T12:21:57;6.70;99.90
8008;DHT22;4049;49.468;11.200;2023-02-12T12:24:34;6.70;99.90
8008;DHT22;4049;49.468;11.200;2023-02-12T12:27:11;6.80;99.90
8008;DHT22;4049;49.468;11.200;2023-02-12T12:30:02;6.90;99.90
8008;DHT22;4049;49.468;11.200;2023-02-12T12:32:34;6.90;99.90
8008;DHT22;4049;49.468;11.200;2023-02-12T12:35:04;7.00;99.90
8008;DHT22;4049;49.468;11.200;2023-02-12T12:37:35;7.00;99.90
8008;DHT22;4049;49.468;11.200;2023-02-12T12:40:16;7.00;99.90
8008;DHT22;4049;49.468;11.200;2023-02-12T12:43:07;7.00;99.90
8008;DHT22;4049;49.468;11.200;2023-02-12T12:45:53;7.10;99.90
8008;DHT22;4049;49.468;11.200;2023-02-12T12:48:33;7.10;99.90
8008;DHT22;4049;49.468;11.200;2023-02-12T12:51:22;7.10;99.90
8008;DHT22;4049;49.468;11.200;2023-02-12T12:54:04;7.10;99.90
8008;DHT22;4049;49.468;11.200;2023-02-12T12:56:47;7.20;99.90
8008;DHT22;4049;49.468;11.200;2023-02-12T13:03:33;7.20;99.90
8008;DHT22;4049;49.468;11.200;2023-02-12T13:06:25;7.30;99.90
8008;DHT22;4049;49.468;11.200;2023-02-12T13:09:22;7.40;99.90
8008;DHT22;4049;49.468;11.200;2023-02-12T13:12:05;7.50;99.90
8008;DHT22;4049;49.468;11.200;2023-02-12T13:14:41;7.60;99.90
8008;DHT22;4049;49.468;11.200;2023-02-12T13:17:15;7.60;99.90
8008;DHT22;4049;49.468;11.200;2023-02-12T13:19:54;7.70;99.90
8008;DHT22;4049;49.468;11.200;2023-02-12T13:22:29;7.80;99.90
8008;DHT22;4049;49.468;11.200;2023-02-12T13:25:06;7.80;99.90
8008;DHT22;4049;49.468;11.200;2023-02-12T13:27:41;7.80;99.90
8008;DHT22;4049;49.468;11.200;2023-02-12T13:30:18;7.90;99.90
8008;DHT22;4049;49.468;11.200;2023-02-12T13:32:49;7.90;99.90
8008;DHT22;4049;49.468;11.200;2023-02-12T13:35:22;7.90;99.90
8008;DHT22;4049;49.468;11.200;2023-02-12T13:37:52;8.00;99.90
8008;DHT22;4049;49.468;11.200;2023-02-12T13:40:21;7.90;99.90
8008;DHT22;4049;49.468;11.200;2023-02-12T13:42:52;7.90;99.90
8008;DHT22;4049;49.468;11.200;2023-02-12T13:45:29;8.00;99.90
8008;DHT22;4049;49.468;11.200;2023-02-12T13:48:19;8.00;99.90
8008;DHT22;4049;49.468;11.200;2023-02-12T13:50:56;8.10;99.90
8008;DHT22;4049;49.468;11.200;2023-02-12T13:53:29;8.10;99.90
8008;DHT22;4049;49.468;11.200;2023-02-12T13:56:06;8.10;99.90
8008;DHT22;4049;49.468;11.200;2023-02-12T13:58:39;8.10;99.90
8008;DHT22;4049;49.468;11.200;2023-02-12T14:01:07;8.20;99.90
8008;DHT22;4049;49.468;11.200;2023-02-12T14:03:36;8.20;99.90
8008;DHT22;4049;49.468;11.200;2023-02-12T14:06:13;8.30;99.90
8008;DHT22;4049;49.468;11.200;2023-02-12T14:08:43;8.30;99.90
8008;DHT22;4049;49.468;11.200;2023-02-12T14:11:12;8.30;99.90
8008;DHT22;4049;49.468;11.200;2023-02-12T14:13:51;8.40;99.90
8008;DHT22;4049;49.468;11.200;2023-02-12T14:16:38;8.40;99.90
8008;DHT22;4049;49.468;11.200;2023-02-12T14:25:37;8.70;99.90
8008;DHT22;4049;49.468;11.200;2023-02-12T14:28:10;8.70;99.90
8008;DHT22;4049;49.468;11.200;2023-02-12T14:30:40;8.80;99.90
8008;DHT22;4049;49.468;11.200;2023-02-12T14:33:20;8.80;99.90
8008;DHT22;4049;49.468;11.200;2023-02-12T14:35:49;8.90;99.90
8008;DHT22;4049;49.468;11.200;2023-02-12T14:39:03;8.90;99.90
8008;DHT22;4049;49.468;11.200;2023-02-12T14:41:41;8.90;99.90
8008;DHT22;4049;49.468;11.200;2023-02-12T14:44:45;8.90;99.90
8008;DHT22;4049;49.468;11.200;2023-02-12T14:47:47;8.90;99.90
8008;DHT22;4049;49.468;11.200;2023-02-12T14:50:12;8.80;99.90
8008;DHT22;4049;49.468;11.200;2023-02-12T14:52:44;8.70;99.90
8008;DHT22;4049;49.468;11.200;2023-02-12T14:55:25;8.60;99.90
8008;DHT22;4049;49.468;11.200;2023-02-12T14:58:00;8.50;99.90
8008;DHT22;4049;49.468;11.200;2023-02-12T15:00:31;8.50;99.90
8008;DHT22;4049;49.468;11.200;2023-02-12T15:03:08;8.40;99.90
8008;DHT22;4049;49.468;11.200;2023-02-12T15:05:42;8.40;99.90
8008;DHT22;4049;49.468;11.200;2023-02-12T15:08:17;8.30;99.90
8008;DHT22;4049;49.468;11.200;2023-02-12T15:10:47;8.30;99.90
8008;DHT22;4049;49.468;11.200;2023-02-12T15:13:22;8.30;99.90
8008;DHT22;4049;49.468;11.200;2023-02-12T15:15:53;8.20;99.90
8008;DHT22;4049;49.468;11.200;2023-02-12T15:18:27;8.10;99.90
8008;DHT22;4049;49.468;11.200;2023-02-12T15:20:59;8.10;99.90
8008;DHT22;4049;49.468;11.200;2023-02-12T15:23:31;8.00;99.90
8008;DHT22;4049;49.468;11.200;2023-02-12T15:25:59;8.00;99.90
8008;DHT22;4049;49.468;11.200;2023-02-12T15:28:30;8.00;99.90
8008;DHT22;4049;49.468;11.200;2023-02-12T15:31:00;7.90;99.90
8008;DHT22;4049;49.468;11.200;2023-02-12T15:33:30;7.90;99.90
8008;DHT22;4049;49.468;11.200;2023-02-12T15:35:58;7.90;99.90
8008;DHT22;4049;49.468;11.200;2023-02-12T15:38:30;7.80;99.90
8008;DHT22;4049;49.468;11.200;2023-02-12T15:40:59;7.80;99.90
8008;DHT22;4049;49.468;11.200;2023-02-12T15:43:28;7.80;99.90
8008;DHT22;4049;49.468;11.200;2023-02-12T15:46:00;7.70;99.90
8008;DHT22;4049;49.468;11.200;2023-02-12T15:48:31;7.70;99.90
8008;DHT22;4049;49.468;11.200;2023-02-12T15:51:06;7.70;99.90
8008;DHT22;4049;49.468;11.200;2023-02-12T15:53:34;7.70;99.90
8008;DHT22;4049;49.468;11.200;2023-02-12T15:56:02;7.60;99.90
8008;DHT22;4049;49.468;11.200;2023-02-12T15:58:36;7.60;99.90
8008;DHT22;4049;49.468;11.200;2023-02-12T16:01:06;7.60;99.90
8008;DHT22;4049;49.468;11.200;2023-02-12T16:03:35;7.50;99.90
8008;DHT22;4049;49.468;11.200;2023-02-12T16:06:05;7.50;99.90
8008;DHT22;4049;49.468;11.200;2023-02-12T16:08:35;7.50;99.90
8008;DHT22;4049;49.468;11.200;2023-02-12T16:11:03;7.50;99.90
8008;DHT22;4049;49.468;11.200;2023-02-12T16:13:42;7.50;99.90
8008;DHT22;4049;49.468;11.200;2023-02-12T16:16:19;7.40;99.90
8008;DHT22;4049;49.468;11.200;2023-02-12T16:19:06;7.40;99.90
8008;DHT22;4049;49.468;11.200;2023-02-12T16:21:35;7.40;99.90
8008;DHT22;4049;49.468;11.200;2023-02-12T16:24:03;7.30;99.90
8008;DHT22;4049;49.468;11.200;2023-02-12T16:26:31;7.30;99.90
8008;DHT22;4049;49.468;11.200;2023-02-12T16:29:00;7.30;99.90
8008;DHT22;4049;49.468;11.200;2023-02-12T16:31:27;7.20;99.90
8008;DHT22;4049;49.468;11.200;2023-02-12T16:33:54;7.20;99.90
8008;DHT22;4049;49.468;11.200;2023-02-12T16:36:29;7.10;99.90
8008;DHT22;4049;49.468;11.200;2023-02-12T16:38:57;7.10;99.90
8008;DHT22;4049;49.468;11.200;2023-02-12T16:41:26;7.10;99.90
8008;DHT22;4049;49.468;11.200;2023-02-12T16:44:22;7.00;99.90